Time;durP1;ratioP1;P1;durP2;ratioP2;P2;SDS_P1;SDS_P2;PMS_P1;PMS_P2;Temp;Humidity;BMP_temperature;BMP_pressure;BME280_temperature;BME280_humidity;BME280_pressure;Samples;Min_cycle;Max_cycle;Signal;HPM_P1;HPM_P2
2022/03/16 00:02:03;;;;;;;24.98;17.15;;;8.60;99.90;;;;;;5034188;28;20079;-73
2022/03/16 00:04:29;;;;;;;24.27;16.27;;;8.60;99.90;;;;;;5034184;28;20034;-73
2022/03/16 00:06:55;;;;;;;33.78;17.02;;;8.50;99.90;;;;;;5016180;28;20116;-73
2022/03/16 00:09:20;;;;;;;21.55;16.80;;;8.40;99.90;;;;;;5033931;28;20040;-73
2022/03/16 00:11:46;;;;;;;24.92;17.48;;;8.40;99.90;;;;;;5033435;28;20025;-73
2022/03/16 00:14:12;;;;;;;27.67;17.35;;;8.40;99.90;;;;;;5033935;28;20055;-73
2022/03/16 00:16:38;;;;;;;25.17;17.70;;;8.50;99.90;;;;;;5033826;28;20038;-73
2022/03/16 00:19:04;;;;;;;27.90;17.63;;;8.30;99.90;;;;;;5015937;28;20033;-73
2022/03/16 00:21:29;;;;;;;27.45;18.35;;;8.30;99.90;;;;;;5033637;28;20033;-73
2022/03/16 00:23:56;;;;;;;26.67;18.17;;;8.20;99.90;;;;;;5033405;28;20029;-73
2022/03/16 00:26:21;;;;;;;30.23;19.17;;;8.10;99.90;;;;;;5033424;28;20056;-73
2022/03/16 00:28:47;;;;;;;27.90;18.27;;;8.00;99.90;;;;;;5033549;28;20102;-73
2022/03/16 00:31:12;;;;;;;30.33;19.65;;;8.00;99.90;;;;;;5033511;28;20080;-72
2022/03/16 00:33:38;;;;;;;28.35;21.00;;;8.30;99.90;;;;;;5033688;28;20036;-73
2022/03/16 00:36:04;;;;;;;31.38;20.73;;;8.50;99.90;;;;;;5033437;28;20045;-73
2022/03/16 00:38:30;;;;;;;25.33;18.65;;;8.50;99.90;;;;;;5015591;28;20034;-73
2022/03/16 00:40:56;;;;;;;27.27;18.63;;;8.50;99.90;;;;;;5015348;28;20033;-73
2022/03/16 00:43:22;;;;;;;30.33;20.50;;;8.40;99.90;;;;;;5015613;28;20031;-73
2022/03/16 00:45:48;;;;;;;31.58;19.27;;;8.40;99.90;;;;;;5015839;28;20029;-73
2022/03/16 00:48:14;;;;;;;25.70;18.30;;;8.50;99.90;;;;;;5015479;28;20026;-73
2022/03/16 00:50:40;;;;;;;31.92;19.33;;;8.70;99.90;;;;;;5015584;28;20485;-73
2022/03/16 00:53:06;;;;;;;28.23;18.52;;;8.60;99.90;;;;;;5015570;28;20481;-73
2022/03/16 00:55:32;;;;;;;25.25;17.67;;;8.30;99.90;;;;;;5032878;28;20037;-73
2022/03/16 00:57:57;;;;;;;28.77;18.77;;;8.10;99.90;;;;;;5033184;28;20125;-73
2022/03/16 01:00:23;;;;;;;26.83;18.33;;;8.00;99.90;;;;;;5032831;28;20048;-73
2022/03/16 01:02:49;;;;;;;30.05;19.90;;;8.00;99.90;;;;;;5033138;28;20108;-73
2022/03/16 01:05:14;;;;;;;29.35;20.27;;;8.10;99.90;;;;;;5033004;28;20013;-73
2022/03/16 01:07:40;;;;;;;25.02;18.70;;;8.00;99.90;;;;;;5015411;28;20469;-73
2022/03/16 01:10:06;;;;;;;24.90;17.77;;;8.00;99.90;;;;;;5014742;28;20033;-73
2022/03/16 01:12:32;;;;;;;29.55;18.67;;;7.80;99.90;;;;;;4998814;28;20072;-73
2022/03/16 01:14:58;;;;;;;30.17;18.30;;;8.10;99.90;;;;;;5033008;28;20037;-73
2022/03/16 01:17:24;;;;;;;25.20;18.83;;;8.10;99.90;;;;;;5033033;28;20029;-73
2022/03/16 01:19:50;;;;;;;27.25;19.65;;;8.00;99.90;;;;;;5032779;28;20569;-73
2022/03/16 01:22:16;;;;;;;29.77;19.40;;;8.00;99.90;;;;;;5015058;28;20108;-73
2022/03/16 01:24:42;;;;;;;29.20;18.55;;;7.90;99.90;;;;;;5014674;28;20064;-73
2022/03/16 01:27:07;;;;;;;30.02;18.48;;;7.90;99.90;;;;;;5032820;28;20048;-73
2022/03/16 01:29:33;;;;;;;26.88;17.00;;;7.80;99.90;;;;;;5032698;28;20025;-73
2022/03/16 01:31:59;;;;;;;27.38;18.77;;;7.90;99.90;;;;;;5014775;28;20041;-73
2022/03/16 01:34:25;;;;;;;26.23;18.83;;;7.90;99.90;;;;;;5015161;28;20112;-73
2022/03/16 01:36:51;;;;;;;28.35;18.52;;;8.00;99.90;;;;;;5015109;28;20404;-73
2022/03/16 01:39:18;;;;;;;25.90;18.23;;;7.90;99.90;;;;;;5032255;28;20037;-73
2022/03/16 01:41:47;;;;;;;27.05;18.80;;;8.00;99.90;;;;;;5014941;28;20032;-73
2022/03/16 01:44:13;;;;;;;25.60;18.70;;;8.20;99.90;;;;;;5032531;28;20041;-73
2022/03/16 01:46:39;;;;;;;26.70;18.70;;;8.00;99.90;;;;;;5032571;28;20025;-73
2022/03/16 01:49:05;;;;;;;27.00;18.85;;;8.00;99.90;;;;;;5032606;28;20469;-73
2022/03/16 01:51:31;;;;;;;30.35;17.10;;;7.90;99.90;;;;;;5032382;28;20469;-73
2022/03/16 01:53:58;;;;;;;25.13;17.55;;;7.90;99.90;;;;;;5014598;28;20041;-73
2022/03/16 01:56:24;;;;;;;27.33;18.60;;;7.80;99.90;;;;;;4996483;28;20543;-73
2022/03/16 01:58:49;;;;;;;29.25;17.95;;;7.80;99.90;;;;;;4995095;28;20117;-73
2022/03/16 02:01:17;;;;;;;24.27;18.17;;;7.90;99.90;;;;;;5012603;28;20034;-73
2022/03/16 02:03:43;;;;;;;26.17;17.98;;;7.70;99.90;;;;;;5012938;28;20037;-73
2022/03/16 02:06:09;;;;;;;27.27;18.50;;;7.60;99.90;;;;;;4995072;28;20033;-73
2022/03/16 02:08:40;;;;;;;28.48;18.80;;;7.50;99.90;;;;;;5012376;28;20037;-73
2022/03/16 02:11:06;;;;;;;26.92;17.30;;;7.40;99.90;;;;;;5023910;28;20026;-73
2022/03/16 02:13:34;;;;;;;27.60;18.40;;;7.40;99.90;;;;;;5018346;28;20041;-73
2022/03/16 02:16:01;;;;;;;29.92;19.83;;;7.30;99.90;;;;;;5035892;28;20056;-73
2022/03/16 02:18:27;;;;;;;28.10;18.25;;;7.10;99.90;;;;;;5018052;28;20034;-73
2022/03/16 02:20:54;;;;;;;29.58;19.77;;;7.00;99.90;;;;;;5018245;28;20030;-73
2022/03/16 02:23:19;;;;;;;29.92;19.45;;;7.10;99.90;;;;;;5001724;28;20025;-73
2022/03/16 02:25:50;;;;;;;33.88;20.15;;;7.00;99.90;;;;;;5035832;28;20451;-73
2022/03/16 02:28:17;;;;;;;27.38;18.88;;;7.20;99.90;;;;;;5035514;28;20084;-73
2022/03/16 02:30:43;;;;;;;31.98;21.50;;;7.20;99.90;;;;;;5035751;28;20473;-73
2022/03/16 02:33:09;;;;;;;29.42;20.05;;;7.30;99.90;;;;;;5035799;28;20034;-73
2022/03/16 02:35:35;;;;;;;33.67;20.73;;;7.20;99.90;;;;;;5035396;28;20465;-72
2022/03/16 02:38:01;;;;;;;33.35;21.05;;;7.10;99.90;;;;;;5035657;28;20477;-73
2022/03/16 02:40:27;;;;;;;34.40;21.02;;;6.90;99.90;;;;;;5035540;28;20026;-73
2022/03/16 02:42:53;;;;;;;31.95;21.35;;;7.00;99.90;;;;;;5035651;28;20044;-73
2022/03/16 02:45:19;;;;;;;35.80;22.50;;;6.90;99.90;;;;;;5017952;28;20055;-73
2022/03/16 02:47:45;;;;;;;31.98;20.77;;;6.90;99.90;;;;;;5017810;28;20049;-73
2022/03/16 02:50:12;;;;;;;32.03;21.27;;;6.90;99.90;;;;;;5035067;28;20041;-73
2022/03/16 02:52:39;;;;;;;33.97;21.70;;;6.90;99.90;;;;;;5001142;28;20033;-73
2022/03/16 02:55:06;;;;;;;30.83;21.73;;;6.80;99.90;;;;;;5035385;28;20037;-73
2022/03/16 02:57:33;;;;;;;34.55;23.70;;;6.80;99.90;;;;;;5017866;28;20040;-74
2022/03/16 02:59:58;;;;;;;32.30;21.65;;;6.80;99.90;;;;;;5017629;28;20033;-72
2022/03/16 03:02:24;;;;;;;34.80;22.30;;;6.70;99.90;;;;;;5017492;28;20452;-74
2022/03/16 03:04:50;;;;;;;30.85;20.95;;;6.80;99.90;;;;;;5017059;28;20025;-75
2022/03/16 03:07:16;;;;;;;33.25;22.00;;;6.70;99.90;;;;;;5017320;28;20041;-72
2022/03/16 03:09:41;;;;;;;32.17;22.35;;;6.70;99.90;;;;;;5035178;28;20034;-73
2022/03/16 03:12:07;;;;;;;32.80;21.98;;;6.70;99.90;;;;;;5034839;28;20037;-73
2022/03/16 03:14:33;;;;;;;34.90;23.70;;;6.70;99.90;;;;;;5035051;28;20073;-73
2022/03/16 03:17:00;;;;;;;36.85;23.17;;;6.80;99.90;;;;;;5034708;28;20060;-73
2022/03/16 03:19:25;;;;;;;33.53;23.17;;;6.80;99.90;;;;;;5016786;28;20088;-73
2022/03/16 03:21:51;;;;;;;34.45;23.05;;;6.70;99.90;;;;;;5034761;28;20025;-73
2022/03/16 03:24:17;;;;;;;33.95;21.38;;;6.70;99.90;;;;;;5034899;28;20477;-73
2022/03/16 03:26:43;;;;;;;32.22;22.80;;;6.60;99.90;;;;;;5034509;28;20026;-72
2022/03/16 03:29:08;;;;;;;32.45;22.70;;;6.60;99.90;;;;;;5016954;28;20557;-73
2022/03/16 03:31:34;;;;;;;30.20;21.15;;;6.60;99.90;;;;;;5034575;28;20496;-72
2022/03/16 03:34:01;;;;;;;34.13;22.25;;;6.70;99.90;;;;;;5034357;28;20064;-73
2022/03/16 03:36:26;;;;;;;28.40;22.20;;;6.70;99.90;;;;;;5016585;28;20021;-73
2022/03/16 03:38:53;;;;;;;31.02;21.30;;;6.70;99.90;;;;;;5016890;28;20034;-73
2022/03/16 03:41:18;;;;;;;30.00;21.10;;;6.60;99.90;;;;;;5016782;28;20022;-72
2022/03/16 03:43:44;;;;;;;33.30;21.83;;;6.70;99.90;;;;;;5034367;28;20025;-72
2022/03/16 03:46:10;;;;;;;29.02;21.95;;;6.70;99.90;;;;;;5034559;28;20491;-73
2022/03/16 03:48:36;;;;;;;30.42;20.80;;;6.60;99.90;;;;;;5034101;28;20120;-73
2022/03/16 03:51:02;;;;;;;33.95;21.67;;;6.70;99.90;;;;;;5034471;28;20033;-72
2022/03/16 03:53:28;;;;;;;32.25;22.15;;;6.70;99.90;;;;;;5034239;28;20044;-73
2022/03/16 03:55:53;;;;;;;30.08;21.52;;;6.80;99.90;;;;;;5034288;28;20537;-73
2022/03/16 03:58:19;;;;;;;32.60;21.60;;;6.80;99.90;;;;;;5034239;28;20033;-73
2022/03/16 04:00:45;;;;;;;31.92;23.50;;;6.90;99.90;;;;;;5033895;28;20037;-74
2022/03/16 04:03:10;;;;;;;37.92;25.48;;;7.00;99.90;;;;;;5033816;28;20021;-73
2022/03/16 04:05:36;;;;;;;33.97;23.20;;;6.90;99.90;;;;;;5016442;28;20037;-73
2022/03/16 04:08:02;;;;;;;37.38;22.88;;;7.00;99.90;;;;;;5033963;28;20030;-73
2022/03/16 04:10:27;;;;;;;31.65;23.02;;;7.00;99.90;;;;;;5033906;28;20076;-73
2022/03/16 04:12:53;;;;;;;34.92;23.15;;;6.90;99.90;;;;;;5033806;28;20045;-73
2022/03/16 04:15:20;;;;;;;33.80;24.02;;;6.90;99.90;;;;;;5016250;28;20032;-75
2022/03/16 04:17:46;;;;;;;31.25;22.65;;;7.00;99.90;;;;;;5033235;28;20119;-73
2022/03/16 04:20:12;;;;;;;38.92;23.50;;;6.90;99.90;;;;;;5016156;28;20045;-72
2022/03/16 04:22:38;;;;;;;38.45;23.85;;;7.10;99.90;;;;;;5015927;28;20034;-73
2022/03/16 04:25:04;;;;;;;32.47;22.92;;;7.20;99.90;;;;;;5033667;28;20021;-72
2022/03/16 04:27:30;;;;;;;35.22;22.55;;;7.40;99.90;;;;;;5033468;28;20056;-73
2022/03/16 04:29:56;;;;;;;36.83;22.35;;;7.30;99.90;;;;;;5015763;28;20017;-73
2022/03/16 04:32:22;;;;;;;32.33;22.40;;;7.20;99.90;;;;;;5033223;28;20045;-73
2022/03/16 04:34:48;;;;;;;30.10;21.95;;;7.30;99.90;;;;;;5015223;28;20017;-73
2022/03/16 04:37:14;;;;;;;37.08;22.33;;;7.10;99.90;;;;;;5033461;28;20033;-73
2022/03/16 04:39:39;;;;;;;27.75;21.13;;;7.10;99.90;;;;;;5033438;28;20013;-73
2022/03/16 04:42:06;;;;;;;38.22;22.30;;;7.00;99.90;;;;;;5033313;28;20481;-73
2022/03/16 04:44:32;;;;;;;30.85;22.27;;;6.90;99.90;;;;;;5015773;28;20026;-73
2022/03/16 04:46:57;;;;;;;31.45;23.23;;;6.80;99.90;;;;;;5033034;28;20037;-73
2022/03/16 04:49:23;;;;;;;32.28;22.60;;;6.80;99.90;;;;;;5033060;28;20033;-73
2022/03/16 04:51:49;;;;;;;34.22;23.67;;;6.80;99.90;;;;;;5033231;28;20167;-73
2022/03/16 04:54:16;;;;;;;34.13;22.63;;;6.80;99.90;;;;;;5033072;28;20488;-72
2022/03/16 04:56:42;;;;;;;35.33;23.15;;;6.90;99.90;;;;;;5033287;28;20034;-72
2022/03/16 04:59:08;;;;;;;41.45;24.17;;;6.80;99.90;;;;;;5032980;28;20465;-73
2022/03/16 05:01:34;;;;;;;36.72;25.35;;;6.90;99.90;;;;;;5032727;28;20029;-72
2022/03/16 05:03:59;;;;;;;39.20;25.40;;;6.90;99.90;;;;;;5032774;28;20496;-72
2022/03/16 05:06:25;;;;;;;33.90;24.45;;;6.90;99.90;;;;;;5033053;28;20101;-72
2022/03/16 05:08:51;;;;;;;37.80;25.08;;;6.90;99.90;;;;;;5014895;28;20069;-72
2022/03/16 05:11:20;;;;;;;43.78;27.75;;;7.00;99.90;;;;;;5015221;28;20496;-73
2022/03/16 05:13:46;;;;;;;34.63;26.10;;;7.20;99.90;;;;;;5032888;28;20033;-73
2022/03/16 05:16:12;;;;;;;37.50;25.00;;;7.00;99.90;;;;;;5014836;28;20438;-73
2022/03/16 05:18:40;;;;;;;36.35;26.13;;;7.20;99.90;;;;;;5032911;28;20037;-73
2022/03/16 05:21:09;;;;;;;44.95;27.25;;;7.20;99.90;;;;;;5032828;28;20103;-73
2022/03/16 05:23:38;;;;;;;36.10;25.00;;;7.40;99.90;;;;;;5015112;28;20514;-73
2022/03/16 05:26:04;;;;;;;36.58;25.00;;;7.20;99.90;;;;;;5032498;28;20033;-73
2022/03/16 05:28:30;;;;;;;34.50;24.00;;;7.30;99.90;;;;;;5015009;28;20462;-73
2022/03/16 05:30:56;;;;;;;35.92;25.75;;;7.30;99.90;;;;;;5032445;28;20555;-73
2022/03/16 05:33:23;;;;;;;34.45;24.98;;;7.30;99.90;;;;;;5014947;28;20041;-73
2022/03/16 05:35:50;;;;;;;38.15;26.48;;;7.10;99.90;;;;;;5032653;28;20108;-73
2022/03/16 05:38:16;;;;;;;39.35;26.33;;;7.10;99.90;;;;;;5032548;28;20435;-73
2022/03/16 05:40:43;;;;;;;38.03;26.75;;;6.80;99.90;;;;;;5032675;28;20033;-73
2022/03/16 05:43:09;;;;;;;38.50;27.38;;;7.00;99.90;;;;;;5032694;28;20057;-73
2022/03/16 05:45:36;;;;;;;36.17;26.35;;;6.90;99.90;;;;;;5032511;28;20080;-73
2022/03/16 05:48:02;;;;;;;41.15;27.30;;;7.00;99.90;;;;;;5036587;28;20474;-73
2022/03/16 05:50:28;;;;;;;38.85;26.52;;;6.90;99.90;;;;;;5018756;28;20055;-73
2022/03/16 05:53:01;;;;;;;47.83;29.20;;;6.70;99.90;;;;;;5036514;28;20041;-73
2022/03/16 05:55:27;;;;;;;45.05;30.23;;;6.70;99.90;;;;;;5036493;28;20033;-73
2022/03/16 05:57:53;;;;;;;45.92;27.77;;;6.70;99.90;;;;;;5036521;28;20032;-73
2022/03/16 06:00:21;;;;;;;43.70;30.77;;;6.70;99.90;;;;;;5035821;28;20470;-73
2022/03/16 06:02:48;;;;;;;42.10;30.23;;;6.80;99.90;;;;;;5018767;28;20493;-73
2022/03/16 06:05:15;;;;;;;43.17;29.27;;;6.70;99.90;;;;;;5036164;28;20087;-73
2022/03/16 06:07:42;;;;;;;45.30;32.28;;;6.70;99.90;;;;;;5036278;28;20032;-73
2022/03/16 06:10:17;;;;;;;46.05;31.90;;;6.70;99.90;;;;;;5036000;28;20116;-73
2022/03/16 06:12:53;;;;;;;46.67;31.17;;;6.80;99.90;;;;;;5036025;28;20045;-73
2022/03/16 06:15:19;;;;;;;40.33;29.30;;;7.00;99.90;;;;;;5035737;28;20369;-73
2022/03/16 06:17:45;;;;;;;39.13;28.40;;;6.90;99.90;;;;;;5035816;28;20032;-73
2022/03/16 06:20:11;;;;;;;42.33;28.60;;;6.80;99.90;;;;;;5036019;28;20108;-73
2022/03/16 06:22:37;;;;;;;39.90;28.85;;;6.90;99.90;;;;;;5035836;28;20032;-73
2022/03/16 06:25:03;;;;;;;43.95;28.25;;;6.90;99.90;;;;;;5035864;28;20481;-73
2022/03/16 06:27:29;;;;;;;43.25;28.20;;;6.80;99.90;;;;;;5017758;28;20064;-73
2022/03/16 06:29:55;;;;;;;40.88;29.63;;;6.70;99.90;;;;;;5035442;28;20033;-73
2022/03/16 06:32:20;;;;;;;42.70;29.00;;;6.80;99.90;;;;;;5035571;28;20045;-73
2022/03/16 06:34:46;;;;;;;41.65;28.55;;;6.80;99.90;;;;;;5035620;28;20101;-73
2022/03/16 06:37:13;;;;;;;39.00;28.45;;;6.90;99.90;;;;;;5035612;28;20030;-73
2022/03/16 13:05:39;;;;;;;22.15;15.40;;;13.30;99.90;;;;;;5110537;27;20441;-76
2022/03/16 13:08:06;;;;;;;23.95;15.40;;;14.20;99.90;;;;;;5109194;28;20024;-79
2022/03/16 13:11:14;;;;;;;27.95;16.63;;;14.40;99.90;;;;;;5110009;28;20023;-78
2022/03/16 13:13:19;;;;;;;21.13;14.80;;;14.80;99.90;;;;;;5110494;28;20034;-77
2022/03/16 13:15:49;;;;;;;23.23;14.75;;;14.50;99.90;;;;;;5110231;28;20380;-77
2022/03/16 13:18:35;;;;;;;21.00;14.93;;;14.40;99.90;;;;;;5110616;28;20039;-78
2022/03/16 13:21:21;;;;;;;24.20;15.25;;;14.70;99.90;;;;;;5110051;28;20044;-79
2022/03/16 13:23:47;;;;;;;22.67;15.73;;;14.60;99.90;;;;;;5109996;28;20030;-78
2022/03/16 13:26:13;;;;;;;26.67;16.42;;;14.50;99.90;;;;;;5109099;28;20039;-77
2022/03/16 13:28:39;;;;;;;22.83;14.88;;;14.60;99.90;;;;;;5110161;28;20020;-79
2022/03/16 13:31:06;;;;;;;31.40;15.68;;;14.40;99.90;;;;;;5109756;28;20050;-79
2022/03/16 13:33:32;;;;;;;24.02;15.88;;;14.40;99.90;;;;;;5110000;28;20526;-78
2022/03/16 13:36:09;;;;;;;30.50;16.52;;;14.50;99.90;;;;;;5110121;28;20056;-79
2022/03/16 13:38:37;;;;;;;21.73;14.77;;;14.50;99.90;;;;;;5108650;28;20537;-79
2022/03/16 13:41:15;;;;;;;21.02;15.02;;;14.70;99.90;;;;;;5109976;28;20024;-79
2022/03/16 13:43:41;;;;;;;25.33;15.02;;;14.50;99.90;;;;;;5108502;28;20115;-79
2022/03/16 13:46:13;;;;;;;26.50;16.48;;;14.70;99.90;;;;;;5109788;28;20063;-79
2022/03/16 13:48:41;;;;;;;25.42;17.42;;;14.60;99.90;;;;;;5109613;28;20072;-78
2022/03/16 13:51:10;;;;;;;29.40;15.57;;;14.50;99.90;;;;;;5109591;28;20365;-78
2022/03/16 13:53:47;;;;;;;35.95;14.57;;;14.40;99.90;;;;;;5109438;28;20034;-79
2022/03/16 13:56:21;;;;;;;24.08;16.60;;;14.30;99.90;;;;;;5109594;28;20035;-78
2022/03/16 13:58:50;;;;;;;28.98;15.65;;;14.40;99.90;;;;;;5109154;28;20085;-78
2022/03/16 14:01:24;;;;;;;27.75;16.00;;;14.10;99.90;;;;;;5109548;28;20020;-76
2022/03/16 14:04:07;;;;;;;26.60;15.88;;;14.10;99.90;;;;;;5087461;28;20037;-79
2022/03/16 14:06:43;;;;;;;25.27;15.93;;;14.10;99.90;;;;;;5058047;28;20079;-79
2022/03/16 14:09:19;;;;;;;37.97;17.02;;;14.10;99.90;;;;;;5075479;28;20465;-79
2022/03/16 14:11:48;;;;;;;30.35;14.95;;;14.30;99.90;;;;;;5075593;28;20477;-76
2022/03/16 14:14:18;;;;;;;27.50;15.82;;;14.30;99.90;;;;;;5075221;28;20381;-75
2022/03/16 14:16:51;;;;;;;22.73;13.77;;;14.50;99.90;;;;;;5075479;28;20036;-79
2022/03/16 14:19:25;;;;;;;25.45;14.32;;;14.50;99.90;;;;;;5073842;28;20044;-78
2022/03/16 14:21:51;;;;;;;22.50;15.38;;;14.60;99.90;;;;;;5074173;28;20478;-76
2022/03/16 14:24:17;;;;;;;28.73;15.20;;;14.70;99.90;;;;;;5074896;28;20187;-76
2022/03/16 14:26:43;;;;;;;24.23;13.70;;;14.80;99.90;;;;;;5057226;28;20119;-79
2022/03/16 14:29:09;;;;;;;20.75;13.63;;;14.80;99.90;;;;;;5074562;28;20124;-78
2022/03/16 14:31:34;;;;;;;25.58;13.45;;;14.80;99.90;;;;;;5074863;28;20094;-75
2022/03/16 14:34:02;;;;;;;26.30;13.18;;;14.80;99.90;;;;;;5074549;28;20414;-75
2022/03/16 14:36:27;;;;;;;29.08;14.27;;;14.70;99.90;;;;;;5074797;28;20025;-74
2022/03/16 14:38:53;;;;;;;22.55;13.57;;;14.50;99.90;;;;;;5073056;28;20394;-75
2022/03/16 14:41:19;;;;;;;27.92;13.23;;;14.50;99.90;;;;;;5074622;28;20513;-75
2022/03/16 14:43:45;;;;;;;23.88;13.20;;;14.40;99.90;;;;;;5074269;28;20044;-76
2022/03/16 14:46:11;;;;;;;23.10;12.85;;;14.30;99.90;;;;;;5074571;28;20013;-78
2022/03/16 14:48:37;;;;;;;25.63;13.18;;;14.10;99.90;;;;;;5074299;28;20029;-78
2022/03/16 14:51:03;;;;;;;22.63;12.50;;;14.00;99.90;;;;;;5074554;28;20473;-79
2022/03/16 14:53:28;;;;;;;21.05;12.45;;;14.30;99.90;;;;;;5074430;28;20016;-77
2022/03/16 14:55:54;;;;;;;24.73;12.27;;;14.20;99.90;;;;;;5074327;28;20535;-78
2022/03/16 14:58:20;;;;;;;25.10;11.95;;;14.10;99.90;;;;;;5074129;28;20021;-76
2022/03/16 15:00:46;;;;;;;19.08;12.73;;;14.00;99.90;;;;;;5074618;28;20025;-75
2022/03/16 15:03:11;;;;;;;18.67;11.30;;;13.90;99.90;;;;;;5088814;28;20547;-78
2022/03/16 15:05:41;;;;;;;26.13;12.23;;;13.90;99.90;;;;;;5094325;28;20504;-76
2022/03/16 15:08:07;;;;;;;21.50;10.68;;;13.90;99.90;;;;;;5094151;28;20028;-76
2022/03/16 15:10:33;;;;;;;19.98;11.98;;;14.00;99.90;;;;;;5094249;28;20174;-79
2022/03/16 15:12:58;;;;;;;20.23;12.32;;;13.90;99.90;;;;;;5094394;28;20024;-76
2022/03/16 15:15:24;;;;;;;21.50;11.57;;;13.90;99.90;;;;;;5094110;28;20485;-76
2022/03/16 15:17:50;;;;;;;24.55;13.68;;;14.00;99.90;;;;;;5093409;28;20054;-76
2022/03/16 15:20:16;;;;;;;20.33;11.90;;;14.00;99.90;;;;;;5094075;28;20024;-76
2022/03/16 15:22:46;;;;;;;23.45;11.30;;;14.00;99.90;;;;;;5094212;28;20032;-78
2022/03/16 15:25:13;;;;;;;18.98;11.32;;;14.10;99.90;;;;;;5093820;28;20097;-75
2022/03/16 15:27:39;;;;;;;19.48;11.63;;;14.10;99.90;;;;;;5094197;28;20373;-78
2022/03/16 15:30:06;;;;;;;21.23;11.68;;;14.10;99.90;;;;;;5093987;28;20035;-79
2022/03/16 15:32:33;;;;;;;28.75;11.25;;;14.10;99.90;;;;;;5093984;28;20051;-78
2022/03/16 15:35:01;;;;;;;20.75;10.38;;;14.20;99.90;;;;;;5094091;28;20024;-79
2022/03/16 15:37:28;;;;;;;21.52;11.05;;;14.30;99.90;;;;;;5093946;28;20036;-79
2022/03/16 15:42:39;;;;;;;22.10;10.82;;;14.30;99.90;;;;;;5093741;28;20039;-77
2022/03/16 15:45:09;;;;;;;16.35;11.02;;;14.20;99.90;;;;;;5093661;28;20036;-79
2022/03/16 15:47:35;;;;;;;19.85;11.52;;;14.20;99.90;;;;;;5078586;28;20423;-78
2022/03/16 15:50:02;;;;;;;21.48;11.38;;;14.10;99.90;;;;;;5088680;28;20073;-78
2022/03/16 15:52:28;;;;;;;27.88;11.32;;;14.10;99.90;;;;;;5089552;28;20028;-78
2022/03/16 15:54:55;;;;;;;19.35;10.98;;;14.20;99.90;;;;;;5089646;28;20025;-78
2022/03/16 15:57:22;;;;;;;17.83;10.23;;;14.30;99.90;;;;;;5089862;28;20044;-77
2022/03/16 15:59:48;;;;;;;30.02;11.13;;;14.40;99.90;;;;;;5089271;28;20020;-78
2022/03/16 16:02:14;;;;;;;20.27;11.95;;;14.30;99.90;;;;;;5089420;28;20031;-77
2022/03/16 16:04:39;;;;;;;20.13;10.98;;;14.40;99.90;;;;;;5089455;28;20051;-77
2022/03/16 16:07:05;;;;;;;21.15;10.25;;;14.20;99.90;;;;;;5089550;28;20020;-78
2022/03/16 16:09:31;;;;;;;23.92;11.13;;;14.20;99.90;;;;;;5089008;28;20060;-77
2022/03/16 16:11:57;;;;;;;30.67;11.50;;;14.30;99.90;;;;;;5089422;28;20474;-77
2022/03/16 16:14:23;;;;;;;18.05;10.48;;;14.20;99.90;;;;;;5089515;28;20066;-78
2022/03/16 16:16:50;;;;;;;24.67;10.32;;;14.20;99.90;;;;;;5089319;28;20111;-77
2022/03/16 16:19:16;;;;;;;20.55;10.02;;;14.20;99.90;;;;;;5089226;28;20032;-77
2022/03/16 16:21:43;;;;;;;24.35;10.82;;;14.10;99.90;;;;;;5084306;28;20024;-76
2022/03/16 16:24:09;;;;;;;21.85;11.43;;;14.00;99.90;;;;;;5071262;28;20044;-77
2022/03/16 16:26:37;;;;;;;26.05;11.35;;;14.00;99.90;;;;;;5072698;28;20110;-78
2022/03/16 16:29:09;;;;;;;27.40;9.90;;;14.00;99.90;;;;;;5072311;28;20028;-76
2022/03/16 16:31:37;;;;;;;21.35;11.02;;;13.90;99.90;;;;;;5072500;28;20029;-79
2022/03/16 16:34:03;;;;;;;19.10;11.02;;;14.00;99.90;;;;;;5073021;28;20035;-78
2022/03/16 16:36:29;;;;;;;31.67;15.63;;;14.10;99.90;;;;;;5072653;28;20539;-80
2022/03/16 16:38:57;;;;;;;21.67;11.52;;;14.10;99.90;;;;;;5072385;28;20103;-76
2022/03/16 16:41:24;;;;;;;16.08;10.55;;;14.10;99.90;;;;;;5072195;28;20051;-77
2022/03/16 16:43:50;;;;;;;20.40;10.43;;;14.00;99.90;;;;;;5072781;28;20380;-80
2022/03/16 16:46:16;;;;;;;20.50;10.77;;;13.90;99.90;;;;;;5072717;28;20048;-76
2022/03/16 16:48:42;;;;;;;17.52;10.88;;;13.90;99.90;;;;;;5072505;28;20498;-77
2022/03/16 16:51:12;;;;;;;22.17;11.48;;;13.90;99.90;;;;;;5072391;28;20039;-77
2022/03/16 16:53:39;;;;;;;15.15;10.00;;;13.80;99.90;;;;;;5072438;28;20040;-78
2022/03/16 16:56:08;;;;;;;18.10;10.43;;;13.80;99.90;;;;;;5072468;28;20025;-79
2022/03/16 16:58:36;;;;;;;18.83;10.48;;;13.80;99.90;;;;;;5072557;28;20025;-76
2022/03/16 17:01:02;;;;;;;16.98;10.57;;;13.90;99.90;;;;;;5072129;28;20462;-79
2022/03/16 17:03:29;;;;;;;17.73;9.75;;;13.80;99.90;;;;;;5089494;28;20032;-77
2022/03/16 17:05:56;;;;;;;23.52;10.48;;;13.90;99.90;;;;;;5092446;28;20030;-77
2022/03/16 17:08:26;;;;;;;27.58;15.10;;;13.70;99.90;;;;;;5090782;28;20404;-77
2022/03/16 17:10:52;;;;;;;24.80;11.90;;;13.70;99.90;;;;;;5092582;28;20032;-76
2022/03/16 17:13:25;;;;;;;20.00;11.05;;;13.70;99.90;;;;;;5092523;28;20023;-77
2022/03/16 17:15:53;;;;;;;29.55;13.70;;;13.70;99.90;;;;;;5074183;28;20028;-80
2022/03/16 17:18:19;;;;;;;31.80;12.75;;;13.70;99.90;;;;;;5092279;28;20077;-77
2022/03/16 17:20:47;;;;;;;17.85;11.32;;;13.70;99.90;;;;;;5092718;28;20021;-77
2022/03/16 17:23:13;;;;;;;20.17;10.85;;;13.60;99.90;;;;;;5092036;28;20400;-77
2022/03/16 17:25:41;;;;;;;16.52;11.20;;;13.50;99.90;;;;;;5092665;28;20024;-78
2022/03/16 17:28:12;;;;;;;27.05;12.15;;;13.50;99.90;;;;;;5092171;28;20047;-77
2022/03/16 17:30:38;;;;;;;20.30;11.25;;;13.40;99.90;;;;;;5092415;28;20028;-77
2022/03/16 17:33:05;;;;;;;27.13;11.82;;;13.40;99.90;;;;;;5092138;28;20812;-77
2022/03/16 17:35:32;;;;;;;20.60;12.20;;;13.50;99.90;;;;;;5092042;28;20024;-77
2022/03/16 17:38:03;;;;;;;20.55;11.63;;;13.50;99.90;;;;;;5092405;28;20077;-78
2022/03/16 17:40:30;;;;;;;23.80;10.98;;;13.60;99.90;;;;;;5093499;28;20040;-80
2022/03/16 17:45:41;;;;;;;18.23;11.15;;;13.50;99.90;;;;;;5096046;28;20503;-77
2022/03/16 17:48:10;;;;;;;21.00;11.52;;;13.50;99.90;;;;;;5096026;28;20044;-80
2022/03/16 17:50:50;;;;;;;22.80;12.68;;;13.50;99.90;;;;;;5095632;28;20036;-80
2022/03/16 17:53:27;;;;;;;19.75;11.82;;;13.50;99.90;;;;;;5095808;28;20048;-79
2022/03/16 17:58:38;;;;;;;26.73;12.73;;;13.20;99.90;;;;;;5094311;28;20024;-78
2022/03/16 18:01:06;;;;;;;25.88;12.55;;;13.30;99.90;;;;;;5095116;28;20024;-78
2022/03/16 18:03:33;;;;;;;25.38;13.77;;;13.40;99.90;;;;;;5095393;28;20051;-77
2022/03/16 18:05:59;;;;;;;24.85;12.82;;;13.30;99.90;;;;;;5095665;28;20162;-77
2022/03/16 18:08:26;;;;;;;21.33;11.57;;;13.20;99.90;;;;;;5094256;28;20028;-78
2022/03/16 18:13:40;;;;;;;18.95;12.57;;;13.20;99.90;;;;;;5095617;28;20039;-79
2022/03/16 18:16:07;;;;;;;21.42;12.18;;;13.20;99.90;;;;;;5094447;28;20036;-79
2022/03/16 18:18:35;;;;;;;16.90;11.60;;;13.20;99.90;;;;;;5095353;28;20485;-79
2022/03/16 18:21:03;;;;;;;27.48;11.63;;;13.20;99.90;;;;;;5093859;28;20528;-79
2022/03/16 18:23:31;;;;;;;22.73;11.55;;;13.20;99.90;;;;;;5095166;28;20450;-80
2022/03/16 18:25:59;;;;;;;21.15;12.70;;;13.20;99.90;;;;;;5095475;28;20022;-80
2022/03/16 18:28:27;;;;;;;21.20;12.35;;;13.20;99.90;;;;;;5095205;28;20495;-80
2022/03/16 18:30:53;;;;;;;34.17;13.20;;;13.30;99.90;;;;;;5096076;28;20035;-79
2022/03/16 18:33:20;;;;;;;24.27;12.90;;;13.20;99.90;;;;;;5095112;28;20031;-79
2022/03/16 18:35:46;;;;;;;21.08;13.02;;;13.00;99.90;;;;;;5095142;28;20028;-79
2022/03/16 18:38:13;;;;;;;20.20;12.88;;;13.10;99.90;;;;;;5094914;28;20028;-79
2022/03/16 18:40:40;;;;;;;22.02;12.10;;;13.10;99.90;;;;;;5095135;28;20032;-78
2022/03/16 18:43:09;;;;;;;19.35;12.70;;;13.00;99.90;;;;;;5094846;28;20020;-78
2022/03/16 18:45:36;;;;;;;33.30;14.18;;;13.00;99.90;;;;;;5093805;28;20112;-79
2022/03/16 18:48:13;;;;;;;28.50;13.10;;;13.00;99.90;;;;;;5093265;28;20032;-76
2022/03/16 18:50:48;;;;;;;24.00;14.10;;;13.00;99.90;;;;;;5095013;28;20052;-77
2022/03/16 18:53:15;;;;;;;19.35;12.73;;;12.90;99.90;;;;;;5094720;28;20032;-77
2022/03/16 18:55:43;;;;;;;21.67;14.23;;;12.90;99.90;;;;;;5077041;28;20081;-77
2022/03/16 18:58:09;;;;;;;24.98;13.57;;;12.90;99.90;;;;;;5093319;28;20078;-77
2022/03/16 19:00:39;;;;;;;32.72;15.63;;;13.00;99.90;;;;;;5094641;28;20473;-78
2022/03/16 19:03:06;;;;;;;22.58;14.27;;;13.00;99.90;;;;;;5093951;28;20477;-78
2022/03/16 19:05:34;;;;;;;32.35;15.30;;;12.90;99.90;;;;;;5093301;28;20087;-79
2022/03/16 19:08:01;;;;;;;25.73;15.10;;;13.00;99.90;;;;;;5093291;28;20047;-79
2022/03/16 19:10:27;;;;;;;30.50;14.70;;;13.00;99.90;;;;;;5094596;28;20028;-78